sensor_id;sensor_type;location;lat;lon;timestamp;temperature;humidity
23010;DHT22;11671;49.990;8.028;2023-03-24T00:02:17;13.60;99.90
23010;DHT22;11671;49.990;8.028;2023-03-24T00:04:46;13.50;99.90
23010;DHT22;11671;49.990;8.028;2023-03-24T00:07:12;13.50;99.90
23010;DHT22;11671;49.990;8.028;2023-03-24T00:09:41;13.30;99.90
23010;DHT22;11671;49.990;8.028;2023-03-24T00:12:11;13.30;99.90
23010;DHT22;11671;49.990;8.028;2023-03-24T00:14:39;13.20;99.90
23010;DHT22;11671;49.990;8.028;2023-03-24T00:17:06;13.20;99.90
23010;DHT22;11671;49.990;8.028;2023-03-24T00:19:34;13.10;99.90
23010;DHT22;11671;49.990;8.028;2023-03-24T00:22:06;13.10;99.90
23010;DHT22;11671;49.990;8.028;2023-03-24T00:24:32;13.20;99.90
23010;DHT22;11671;49.990;8.028;2023-03-24T00:26:58;13.20;99.90
23010;DHT22;11671;49.990;8.028;2023-03-24T00:29:25;13.10;99.90
23010;DHT22;11671;49.990;8.028;2023-03-24T00:31:51;13.10;99.90
23010;DHT22;11671;49.990;8.028;2023-03-24T00:34:19;13.10;99.90
23010;DHT22;11671;49.990;8.028;2023-03-24T00:36:49;13.00;99.90
23010;DHT22;11671;49.990;8.028;2023-03-24T00:39:17;13.00;99.90
23010;DHT22;11671;49.990;8.028;2023-03-24T00:41:44;12.90;99.90
23010;DHT22;11671;49.990;8.028;2023-03-24T00:44:11;12.80;99.90
23010;DHT22;11671;49.990;8.028;2023-03-24T00:46:43;12.80;99.90
23010;DHT22;11671;49.990;8.028;2023-03-24T00:49:11;12.80;99.90
23010;DHT22;11671;49.990;8.028;2023-03-24T00:51:41;12.70;99.90
23010;DHT22;11671;49.990;8.028;2023-03-24T00:54:08;12.60;99.90
23010;DHT22;11671;49.990;8.028;2023-03-24T00:56:36;12.50;99.90
23010;DHT22;11671;49.990;8.028;2023-03-24T00:59:04;12.50;99.90
23010;DHT22;11671;49.990;8.028;2023-03-24T01:01:32;12.50;99.90
23010;DHT22;11671;49.990;8.028;2023-03-24T01:03:59;12.50;99.90
23010;DHT22;11671;49.990;8.028;2023-03-24T01:06:25;12.50;99.90
23010;DHT22;11671;49.990;8.028;2023-03-24T01:08:51;12.50;99.90
23010;DHT22;11671;49.990;8.028;2023-03-24T01:11:23;12.60;99.90
23010;DHT22;11671;49.990;8.028;2023-03-24T01:13:50;12.60;99.90
23010;DHT22;11671;49.990;8.028;2023-03-24T01:16:15;12.50;99.90
23010;DHT22;11671;49.990;8.028;2023-03-24T01:18:41;12.50;99.90
23010;DHT22;11671;49.990;8.028;2023-03-24T01:21:09;12.50;99.90
23010;DHT22;11671;49.990;8.028;2023-03-24T01:23:37;12.40;99.90
23010;DHT22;11671;49.990;8.028;2023-03-24T01:26:08;12.50;99.90
23010;DHT22;11671;49.990;8.028;2023-03-24T01:28:34;12.50;99.90
23010;DHT22;11671;49.990;8.028;2023-03-24T01:31:08;12.50;99.90
23010;DHT22;11671;49.990;8.028;2023-03-24T01:33:36;12.50;99.90
23010;DHT22;11671;49.990;8.028;2023-03-24T01:36:03;12.50;99.90
23010;DHT22;11671;49.990;8.028;2023-03-24T01:38:28;12.50;99.90
23010;DHT22;11671;49.990;8.028;2023-03-24T01:40:54;12.50;99.90
23010;DHT22;11671;49.990;8.028;2023-03-24T01:43:23;12.60;99.90
23010;DHT22;11671;49.990;8.028;2023-03-24T01:46:02;12.60;99.90
23010;DHT22;11671;49.990;8.028;2023-03-24T01:48:41;12.60;99.90
23010;DHT22;11671;49.990;8.028;2023-03-24T01:51:24;12.70;99.90
23010;DHT22;11671;49.990;8.028;2023-03-24T01:54:01;12.60;99.90
23010;DHT22;11671;49.990;8.028;2023-03-24T01:56:30;12.60;99.90
23010;DHT22;11671;49.990;8.028;2023-03-24T01:59:00;12.60;99.90
23010;DHT22;11671;49.990;8.028;2023-03-24T02:01:28;12.60;99.90
23010;DHT22;11671;49.990;8.028;2023-03-24T02:04:03;12.50;99.90
23010;DHT22;11671;49.990;8.028;2023-03-24T02:06:33;12.50;99.90
23010;DHT22;11671;49.990;8.028;2023-03-24T02:09:00;12.50;99.90
23010;DHT22;11671;49.990;8.028;2023-03-24T02:11:29;12.40;99.90
23010;DHT22;11671;49.990;8.028;2023-03-24T02:13:55;12.30;99.90
23010;DHT22;11671;49.990;8.028;2023-03-24T02:23:03;12.40;99.90
23010;DHT22;11671;49.990;8.028;2023-03-24T02:31:41;12.30;99.90
23010;DHT22;11671;49.990;8.028;2023-03-24T02:45:20;12.20;99.90
23010;DHT22;11671;49.990;8.028;2023-03-24T02:48:17;12.10;99.90
23010;DHT22;11671;49.990;8.028;2023-03-24T02:53:31;12.00;99.90
23010;DHT22;11671;49.990;8.028;2023-03-24T02:56:12;12.00;99.90
23010;DHT22;11671;49.990;8.028;2023-03-24T02:58:48;11.90;99.90
23010;DHT22;11671;49.990;8.028;2023-03-24T03:01:43;11.90;99.90
23010;DHT22;11671;49.990;8.028;2023-03-24T03:04:11;12.00;99.90
23010;DHT22;11671;49.990;8.028;2023-03-24T03:06:41;11.90;99.90
23010;DHT22;11671;49.990;8.028;2023-03-24T03:09:13;11.90;99.90
23010;DHT22;11671;49.990;8.028;2023-03-24T03:11:43;11.90;99.90
23010;DHT22;11671;49.990;8.028;2023-03-24T03:14:36;11.90;99.90
23010;DHT22;11671;49.990;8.028;2023-03-24T03:17:14;11.90;99.90
23010;DHT22;11671;49.990;8.028;2023-03-24T03:19:44;12.00;99.90
23010;DHT22;11671;49.990;8.028;2023-03-24T03:22:18;12.00;99.90
23010;DHT22;11671;49.990;8.028;2023-03-24T03:24:48;12.10;99.90
23010;DHT22;11671;49.990;8.028;2023-03-24T03:27:28;12.10;99.90
23010;DHT22;11671;49.990;8.028;2023-03-24T03:30:12;12.10;99.90
23010;DHT22;11671;49.990;8.028;2023-03-24T03:32:43;12.20;99.90
23010;DHT22;11671;49.990;8.028;2023-03-24T03:35:24;12.20;99.90
23010;DHT22;11671;49.990;8.028;2023-03-24T03:40:48;12.30;99.90
23010;DHT22;11671;49.990;8.028;2023-03-24T03:43:15;12.30;99.90
23010;DHT22;11671;49.990;8.028;2023-03-24T03:45:41;12.40;99.90
23010;DHT22;11671;49.990;8.028;2023-03-24T03:48:07;12.30;99.90
23010;DHT22;11671;49.990;8.028;2023-03-24T03:50:33;12.30;99.90
23010;DHT22;11671;49.990;8.028;2023-03-24T03:52:59;12.40;99.90
23010;DHT22;11671;49.990;8.028;2023-03-24T03:55:25;12.30;99.90
23010;DHT22;11671;49.990;8.028;2023-03-24T03:57:51;12.30;99.90
23010;DHT22;11671;49.990;8.028;2023-03-24T04:00:18;12.40;99.90
23010;DHT22;11671;49.990;8.028;2023-03-24T04:08:48;12.50;99.90
23010;DHT22;11671;49.990;8.028;2023-03-24T04:21:44;12.50;99.90
23010;DHT22;11671;49.990;8.028;2023-03-24T04:29:24;12.40;99.90
23010;DHT22;11671;49.990;8.028;2023-03-24T04:31:52;12.30;99.90
23010;DHT22;11671;49.990;8.028;2023-03-24T04:34:35;12.30;99.90
23010;DHT22;11671;49.990;8.028;2023-03-24T04:37:08;12.40;99.90
23010;DHT22;11671;49.990;8.028;2023-03-24T04:39:39;12.40;99.90
23010;DHT22;11671;49.990;8.028;2023-03-24T04:42:10;12.40;99.90
23010;DHT22;11671;49.990;8.028;2023-03-24T04:44:37;12.40;99.90
23010;DHT22;11671;49.990;8.028;2023-03-24T04:47:07;12.50;99.90
23010;DHT22;11671;49.990;8.028;2023-03-24T04:49:37;12.50;99.90
23010;DHT22;11671;49.990;8.028;2023-03-24T04:52:04;12.40;99.90
23010;DHT22;11671;49.990;8.028;2023-03-24T04:54:31;12.50;99.90
23010;DHT22;11671;49.990;8.028;2023-03-24T04:56:58;12.50;99.90
23010;DHT22;11671;49.990;8.028;2023-03-24T04:59:26;12.50;99.90
23010;DHT22;11671;49.990;8.028;2023-03-24T05:01:52;12.50;99.90
23010;DHT22;11671;49.990;8.028;2023-03-24T05:04:22;12.50;99.90
23010;DHT22;11671;49.990;8.028;2023-03-24T05:06:48;12.60;99.90
23010;DHT22;11671;49.990;8.028;2023-03-24T05:09:14;12.50;99.90
23010;DHT22;11671;49.990;8.028;2023-03-24T05:11:40;12.40;99.90
23010;DHT22;11671;49.990;8.028;2023-03-24T05:14:05;12.50;99.90
23010;DHT22;11671;49.990;8.028;2023-03-24T05:16:31;12.50;99.90
23010;DHT22;11671;49.990;8.028;2023-03-24T05:18:56;12.50;99.90
23010;DHT22;11671;49.990;8.028;2023-03-24T05:21:22;12.60;99.90
23010;DHT22;11671;49.990;8.028;2023-03-24T05:23:47;12.70;99.90
23010;DHT22;11671;49.990;8.028;2023-03-24T05:26:13;12.70;99.90
23010;DHT22;11671;49.990;8.028;2023-03-24T05:28:39;12.80;99.90
23010;DHT22;11671;49.990;8.028;2023-03-24T05:31:05;12.80;99.90
23010;DHT22;11671;49.990;8.028;2023-03-24T05:33:30;12.90;99.90
23010;DHT22;11671;49.990;8.028;2023-03-24T05:35:56;12.90;99.90
23010;DHT22;11671;49.990;8.028;2023-03-24T05:38:21;13.00;99.90
23010;DHT22;11671;49.990;8.028;2023-03-24T05:40:47;13.10;99.90
23010;DHT22;11671;49.990;8.028;2023-03-24T05:43:13;13.10;99.90
23010;DHT22;11671;49.990;8.028;2023-03-24T05:45:38;13.20;99.90
23010;DHT22;11671;49.990;8.028;2023-03-24T05:48:04;13.20;99.90
23010;DHT22;11671;49.990;8.028;2023-03-24T05:50:30;13.20;99.90
23010;DHT22;11671;49.990;8.028;2023-03-24T05:52:56;13.20;99.90
23010;DHT22;11671;49.990;8.028;2023-03-24T05:55:22;13.30;99.90
23010;DHT22;11671;49.990;8.028;2023-03-24T05:57:47;13.30;99.90
23010;DHT22;11671;49.990;8.028;2023-03-24T06:00:13;13.30;99.90
23010;DHT22;11671;49.990;8.028;2023-03-24T06:02:44;13.40;99.90
23010;DHT22;11671;49.990;8.028;2023-03-24T06:05:10;13.40;99.90
23010;DHT22;11671;49.990;8.028;2023-03-24T06:07:37;13.40;99.90
23010;DHT22;11671;49.990;8.028;2023-03-24T06:10:03;13.30;99.90
23010;DHT22;11671;49.990;8.028;2023-03-24T06:12:32;13.30;99.90
23010;DHT22;11671;49.990;8.028;2023-03-24T06:14:58;13.30;99.90
23010;DHT22;11671;49.990;8.028;2023-03-24T06:17:27;13.30;99.90
23010;DHT22;11671;49.990;8.028;2023-03-24T06:19:53;13.20;99.90
23010;DHT22;11671;49.990;8.028;2023-03-24T06:22:27;13.20;99.90
23010;DHT22;11671;49.990;8.028;2023-03-24T06:24:52;13.30;99.90
23010;DHT22;11671;49.990;8.028;2023-03-24T06:27:21;13.40;99.90
23010;DHT22;11671;49.990;8.028;2023-03-24T06:29:51;13.40;99.90
23010;DHT22;11671;49.990;8.028;2023-03-24T06:32:20;13.50;99.90
23010;DHT22;11671;49.990;8.028;2023-03-24T06:34:46;13.50;99.90
23010;DHT22;11671;49.990;8.028;2023-03-24T06:37:11;13.50;99.90
23010;DHT22;11671;49.990;8.028;2023-03-24T06:39:37;13.60;99.90
23010;DHT22;11671;49.990;8.028;2023-03-24T06:42:03;13.60;99.90
23010;DHT22;11671;49.990;8.028;2023-03-24T06:44:28;13.70;99.90
23010;DHT22;11671;49.990;8.028;2023-03-24T06:46:54;13.80;99.90
23010;DHT22;11671;49.990;8.028;2023-03-24T06:49:19;13.80;99.90
23010;DHT22;11671;49.990;8.028;2023-03-24T06:51:45;13.90;99.90
23010;DHT22;11671;49.990;8.028;2023-03-24T06:54:11;13.90;99.90
23010;DHT22;11671;49.990;8.028;2023-03-24T06:56:36;13.90;99.90
23010;DHT22;11671;49.990;8.028;2023-03-24T06:59:02;14.00;99.90
23010;DHT22;11671;49.990;8.028;2023-03-24T07:01:28;14.10;99.90
23010;DHT22;11671;49.990;8.028;2023-03-24T07:03:54;14.00;99.90
23010;DHT22;11671;49.990;8.028;2023-03-24T07:06:20;14.10;99.90
23010;DHT22;11671;49.990;8.028;2023-03-24T07:08:47;14.10;99.90
23010;DHT22;11671;49.990;8.028;2023-03-24T07:11:13;14.10;99.90
23010;DHT22;11671;49.990;8.028;2023-03-24T07:13:40;14.10;99.90
23010;DHT22;11671;49.990;8.028;2023-03-24T07:16:05;14.20;99.90
23010;DHT22;11671;49.990;8.028;2023-03-24T07:18:31;14.30;99.90
23010;DHT22;11671;49.990;8.028;2023-03-24T07:20:57;14.50;99.90
23010;DHT22;11671;49.990;8.028;2023-03-24T07:23:22;14.50;99.90
23010;DHT22;11671;49.990;8.028;2023-03-24T07:25:50;14.50;99.90
23010;DHT22;11671;49.990;8.028;2023-03-24T07:28:15;14.50;99.90
23010;DHT22;11671;49.990;8.028;2023-03-24T07:30:41;14.50;99.90
23010;DHT22;11671;49.990;8.028;2023-03-24T07:33:07;14.50;99.90
23010;DHT22;11671;49.990;8.028;2023-03-24T07:35:35;14.60;99.90
23010;DHT22;11671;49.990;8.028;2023-03-24T07:38:01;14.70;99.90
23010;DHT22;11671;49.990;8.028;2023-03-24T07:40:27;14.70;99.90
23010;DHT22;11671;49.990;8.028;2023-03-24T07:42:52;14.60;99.90
23010;DHT22;11671;49.990;8.028;2023-03-24T07:45:18;14.60;99.90
23010;DHT22;11671;49.990;8.028;2023-03-24T07:47:45;14.60;99.90
23010;DHT22;11671;49.990;8.028;2023-03-24T07:50:12;14.60;99.90
23010;DHT22;11671;49.990;8.028;2023-03-24T07:52:44;14.80;99.90
23010;DHT22;11671;49.990;8.028;2023-03-24T07:55:11;14.80;99.90
23010;DHT22;11671;49.990;8.028;2023-03-24T07:57:37;14.90;99.90
23010;DHT22;11671;49.990;8.028;2023-03-24T08:00:04;14.90;99.90
23010;DHT22;11671;49.990;8.028;2023-03-24T08:02:52;14.80;99.90
23010;DHT22;11671;49.990;8.028;2023-03-24T08:05:21;15.00;99.90
23010;DHT22;11671;49.990;8.028;2023-03-24T08:07:50;15.00;99.90
23010;DHT22;11671;49.990;8.028;2023-03-24T08:10:21;15.20;99.90
23010;DHT22;11671;49.990;8.028;2023-03-24T08:12:48;15.30;99.90
23010;DHT22;11671;49.990;8.028;2023-03-24T08:15:15;15.40;99.90
23010;DHT22;11671;49.990;8.028;2023-03-24T08:17:41;15.30;99.90
23010;DHT22;11671;49.990;8.028;2023-03-24T08:20:07;15.30;99.90
23010;DHT22;11671;49.990;8.028;2023-03-24T08:22:43;15.20;99.90
23010;DHT22;11671;49.990;8.028;2023-03-24T08:25:11;15.00;99.90
23010;DHT22;11671;49.990;8.028;2023-03-24T08:27:38;14.90;99.90
23010;DHT22;11671;49.990;8.028;2023-03-24T08:30:06;14.90;99.90
23010;DHT22;11671;49.990;8.028;2023-03-24T08:32:33;14.90;99.90
23010;DHT22;11671;49.990;8.028;2023-03-24T08:34:59;14.80;99.90
23010;DHT22;11671;49.990;8.028;2023-03-24T08:37:25;14.80;99.90
23010;DHT22;11671;49.990;8.028;2023-03-24T08:39:50;14.60;99.90
23010;DHT22;11671;49.990;8.028;2023-03-24T08:42:16;14.50;99.90
23010;DHT22;11671;49.990;8.028;2023-03-24T08:44:41;14.50;99.90
23010;DHT22;11671;49.990;8.028;2023-03-24T08:47:07;14.40;99.90
23010;DHT22;11671;49.990;8.028;2023-03-24T08:49:32;14.20;99.90
23010;DHT22;11671;49.990;8.028;2023-03-24T08:51:58;14.10;99.90
23010;DHT22;11671;49.990;8.028;2023-03-24T08:54:24;14.10;99.90
23010;DHT22;11671;49.990;8.028;2023-03-24T08:56:50;14.10;99.90
23010;DHT22;11671;49.990;8.028;2023-03-24T08:59:16;14.20;99.90
23010;DHT22;11671;49.990;8.028;2023-03-24T09:01:42;14.10;99.90
23010;DHT22;11671;49.990;8.028;2023-03-24T09:04:07;14.20;99.90
23010;DHT22;11671;49.990;8.028;2023-03-24T09:06:33;14.20;99.90
23010;DHT22;11671;49.990;8.028;2023-03-24T09:08:58;14.10;99.90
23010;DHT22;11671;49.990;8.028;2023-03-24T09:11:24;14.10;99.90
23010;DHT22;11671;49.990;8.028;2023-03-24T09:13:49;14.00;99.90
23010;DHT22;11671;49.990;8.028;2023-03-24T09:16:16;14.00;99.90
23010;DHT22;11671;49.990;8.028;2023-03-24T09:18:42;14.00;99.90
23010;DHT22;11671;49.990;8.028;2023-03-24T09:21:08;14.00;99.90
23010;DHT22;11671;49.990;8.028;2023-03-24T09:23:34;13.90;99.90
23010;DHT22;11671;49.990;8.028;2023-03-24T09:26:00;13.80;99.90
23010;DHT22;11671;49.990;8.028;2023-03-24T09:28:27;13.80;99.90
23010;DHT22;11671;49.990;8.028;2023-03-24T09:30:56;13.70;99.90
23010;DHT22;11671;49.990;8.028;2023-03-24T09:33:22;13.60;99.90
23010;DHT22;11671;49.990;8.028;2023-03-24T09:35:55;13.50;99.90
23010;DHT22;11671;49.990;8.028;2023-03-24T09:38:21;13.60;99.90
23010;DHT22;11671;49.990;8.028;2023-03-24T09:40:48;13.60;99.90
23010;DHT22;11671;49.990;8.028;2023-03-24T09:45:56;13.70;99.90
23010;DHT22;11671;49.990;8.028;2023-03-24T09:48:48;13.80;99.90
23010;DHT22;11671;49.990;8.028;2023-03-24T09:51:22;13.80;99.90
23010;DHT22;11671;49.990;8.028;2023-03-24T09:56:37;14.10;99.90
23010;DHT22;11671;49.990;8.028;2023-03-24T09:59:18;14.10;99.90
23010;DHT22;11671;49.990;8.028;2023-03-24T10:01:45;14.20;99.90
23010;DHT22;11671;49.990;8.028;2023-03-24T10:04:16;14.10;99.90
23010;DHT22;11671;49.990;8.028;2023-03-24T10:06:42;14.10;99.90
23010;DHT22;11671;49.990;8.028;2023-03-24T10:19:52;14.80;99.90
23010;DHT22;11671;49.990;8.028;2023-03-24T10:22:26;14.90;99.90
23010;DHT22;11671;49.990;8.028;2023-03-24T10:27:36;15.20;99.90
23010;DHT22;11671;49.990;8.028;2023-03-24T10:32:40;15.10;99.90
23010;DHT22;11671;49.990;8.028;2023-03-24T10:35:35;15.10;99.90
23010;DHT22;11671;49.990;8.028;2023-03-24T10:38:02;15.30;99.90
23010;DHT22;11671;49.990;8.028;2023-03-24T10:40:30;15.60;99.90
23010;DHT22;11671;49.990;8.028;2023-03-24T10:42:57;15.70;99.90
23010;DHT22;11671;49.990;8.028;2023-03-24T10:45:34;15.90;99.90
23010;DHT22;11671;49.990;8.028;2023-03-24T10:48:02;15.90;99.90
23010;DHT22;11671;49.990;8.028;2023-03-24T10:50:30;15.90;99.90
23010;DHT22;11671;49.990;8.028;2023-03-24T10:52:56;15.80;99.90
23010;DHT22;11671;49.990;8.028;2023-03-24T10:55:23;15.50;99.90
23010;DHT22;11671;49.990;8.028;2023-03-24T10:57:55;15.40;99.90
23010;DHT22;11671;49.990;8.028;2023-03-24T11:00:25;15.30;99.90
23010;DHT22;11671;49.990;8.028;2023-03-24T11:03:00;15.40;99.90
23010;DHT22;11671;49.990;8.028;2023-03-24T11:05:31;15.60;99.90
23010;DHT22;11671;49.990;8.028;2023-03-24T11:10:42;15.90;99.90
23010;DHT22;11671;49.990;8.028;2023-03-24T11:13:37;16.10;99.90
23010;DHT22;11671;49.990;8.028;2023-03-24T11:16:14;16.20;99.90
23010;DHT22;11671;49.990;8.028;2023-03-24T11:19:05;16.40;99.90
23010;DHT22;11671;49.990;8.028;2023-03-24T11:21:34;16.50;99.90
23010;DHT22;11671;49.990;8.028;2023-03-24T11:24:07;16.60;99.90
23010;DHT22;11671;49.990;8.028;2023-03-24T11:26:35;16.80;99.90
23010;DHT22;11671;49.990;8.028;2023-03-24T11:29:08;16.90;99.90
23010;DHT22;11671;49.990;8.028;2023-03-24T11:31:38;16.70;99.90
23010;DHT22;11671;49.990;8.028;2023-03-24T11:34:08;16.70;99.90
23010;DHT22;11671;49.990;8.028;2023-03-24T11:36:47;16.70;99.90
23010;DHT22;11671;49.990;8.028;2023-03-24T11:44:46;16.60;99.90
23010;DHT22;11671;49.990;8.028;2023-03-24T11:52:24;16.90;99.90
23010;DHT22;11671;49.990;8.028;2023-03-24T11:54:51;17.20;99.90
23010;DHT22;11671;49.990;8.028;2023-03-24T11:57:30;17.50;99.90
23010;DHT22;11671;49.990;8.028;2023-03-24T12:00:05;17.60;99.90
23010;DHT22;11671;49.990;8.028;2023-03-24T12:05:38;17.80;99.90
23010;DHT22;11671;49.990;8.028;2023-03-24T12:11:16;17.70;99.90
23010;DHT22;11671;49.990;8.028;2023-03-24T12:13:50;17.60;99.90
23010;DHT22;11671;49.990;8.028;2023-03-24T12:19:29;17.50;99.90
23010;DHT22;11671;49.990;8.028;2023-03-24T12:22:10;17.60;99.90
23010;DHT22;11671;49.990;8.028;2023-03-24T12:24:55;17.70;99.90
23010;DHT22;11671;49.990;8.028;2023-03-24T12:30:40;17.60;99.90
23010;DHT22;11671;49.990;8.028;2023-03-24T12:33:14;17.30;99.90
23010;DHT22;11671;49.990;8.028;2023-03-24T12:38:14;17.40;99.90
23010;DHT22;11671;49.990;8.028;2023-03-24T12:41:03;17.30;99.90
23010;DHT22;11671;49.990;8.028;2023-03-24T12:43:38;17.40;99.90
23010;DHT22;11671;49.990;8.028;2023-03-24T12:46:30;17.50;99.90
23010;DHT22;11671;49.990;8.028;2023-03-24T12:49:20;17.70;99.90
23010;DHT22;11671;49.990;8.028;2023-03-24T12:57:16;17.90;99.90
23010;DHT22;11671;49.990;8.028;2023-03-24T12:59:48;18.00;99.90
23010;DHT22;11671;49.990;8.028;2023-03-24T13:02:34;18.10;99.90
23010;DHT22;11671;49.990;8.028;2023-03-24T13:05:06;18.00;99.90
23010;DHT22;11671;49.990;8.028;2023-03-24T13:07:35;18.00;99.90
23010;DHT22;11671;49.990;8.028;2023-03-24T13:13:01;18.40;99.90
23010;DHT22;11671;49.990;8.028;2023-03-24T13:15:50;19.00;99.90
23010;DHT22;11671;49.990;8.028;2023-03-24T13:18:51;19.10;99.90
23010;DHT22;11671;49.990;8.028;2023-03-24T13:21:19;19.10;99.90
23010;DHT22;11671;49.990;8.028;2023-03-24T13:23:57;19.30;99.90
23010;DHT22;11671;49.990;8.028;2023-03-24T13:38:00;19.50;99.90
23010;DHT22;11671;49.990;8.028;2023-03-24T13:40:28;19.70;99.90
23010;DHT22;11671;49.990;8.028;2023-03-24T13:42:58;19.50;99.90
23010;DHT22;11671;49.990;8.028;2023-03-24T13:45:45;19.30;99.90
23010;DHT22;11671;49.990;8.028;2023-03-24T13:53:34;19.50;99.90
23010;DHT22;11671;49.990;8.028;2023-03-24T13:56:03;19.60;99.90
23010;DHT22;11671;49.990;8.028;2023-03-24T13:59:04;19.70;99.90
23010;DHT22;11671;49.990;8.028;2023-03-24T14:01:35;19.70;99.90
23010;DHT22;11671;49.990;8.028;2023-03-24T14:06:46;19.90;99.90
23010;DHT22;11671;49.990;8.028;2023-03-24T14:09:19;19.80;99.90
23010;DHT22;11671;49.990;8.028;2023-03-24T14:12:06;19.80;99.90
23010;DHT22;11671;49.990;8.028;2023-03-24T14:14:33;19.60;99.90
23010;DHT22;11671;49.990;8.028;2023-03-24T14:17:11;19.60;99.90
23010;DHT22;11671;49.990;8.028;2023-03-24T14:19:41;19.60;99.90
23010;DHT22;11671;49.990;8.028;2023-03-24T14:22:21;19.60;99.90
23010;DHT22;11671;49.990;8.028;2023-03-24T14:27:47;19.90;99.90
23010;DHT22;11671;49.990;8.028;2023-03-24T14:30:26;19.90;99.90
23010;DHT22;11671;49.990;8.028;2023-03-24T14:32:57;19.90;99.90
23010;DHT22;11671;49.990;8.028;2023-03-24T14:35:38;19.70;99.90
23010;DHT22;11671;49.990;8.028;2023-03-24T14:38:21;19.40;99.90
23010;DHT22;11671;49.990;8.028;2023-03-24T14:40:49;19.30;99.90
23010;DHT22;11671;49.990;8.028;2023-03-24T14:43:25;19.10;99.90
23010;DHT22;11671;49.990;8.028;2023-03-24T14:48:42;18.90;99.90
23010;DHT22;11671;49.990;8.028;2023-03-24T14:53:38;18.60;99.90
23010;DHT22;11671;49.990;8.028;2023-03-24T14:56:06;18.50;99.90
23010;DHT22;11671;49.990;8.028;2023-03-24T14:58:36;18.40;99.90
23010;DHT22;11671;49.990;8.028;2023-03-24T15:01:05;18.30;99.90
23010;DHT22;11671;49.990;8.028;2023-03-24T15:06:17;18.70;99.90
23010;DHT22;11671;49.990;8.028;2023-03-24T15:08:57;18.70;99.90
23010;DHT22;11671;49.990;8.028;2023-03-24T15:11:31;18.80;99.90
23010;DHT22;11671;49.990;8.028;2023-03-24T15:13:59;18.90;99.90
23010;DHT22;11671;49.990;8.028;2023-03-24T15:16:30;19.00;99.90
23010;DHT22;11671;49.990;8.028;2023-03-24T15:21:45;19.20;99.90
23010;DHT22;11671;49.990;8.028;2023-03-24T15:29:18;18.70;99.90
23010;DHT22;11671;49.990;8.028;2023-03-24T15:31:44;18.60;99.90
23010;DHT22;11671;49.990;8.028;2023-03-24T15:36:56;18.80;99.90
23010;DHT22;11671;49.990;8.028;2023-03-24T15:39:31;18.80;99.90
23010;DHT22;11671;49.990;8.028;2023-03-24T15:41:57;18.80;99.90
23010;DHT22;11671;49.990;8.028;2023-03-24T15:44:24;18.90;99.90
23010;DHT22;11671;49.990;8.028;2023-03-24T15:46:52;19.00;99.90
23010;DHT22;11671;49.990;8.028;2023-03-24T15:49:23;19.00;99.90
23010;DHT22;11671;49.990;8.028;2023-03-24T15:51:56;19.00;99.90
23010;DHT22;11671;49.990;8.028;2023-03-24T15:54:28;18.80;99.90
23010;DHT22;11671;49.990;8.028;2023-03-24T15:57:18;18.50;99.90
23010;DHT22;11671;49.990;8.028;2023-03-24T16:02:31;18.50;99.90
23010;DHT22;11671;49.990;8.028;2023-03-24T16:05:00;18.60;99.90
23010;DHT22;11671;49.990;8.028;2023-03-24T16:07:31;18.90;99.90
23010;DHT22;11671;49.990;8.028;2023-03-24T16:10:00;18.90;99.90
23010;DHT22;11671;49.990;8.028;2023-03-24T16:12:34;18.70;99.90
23010;DHT22;11671;49.990;8.028;2023-03-24T16:14:59;18.70;99.90
23010;DHT22;11671;49.990;8.028;2023-03-24T16:17:25;18.50;99.90
23010;DHT22;11671;49.990;8.028;2023-03-24T16:19:51;18.20;99.90
23010;DHT22;11671;49.990;8.028;2023-03-24T16:22:16;18.00;99.90
23010;DHT22;11671;49.990;8.028;2023-03-24T16:24:42;18.10;99.90
23010;DHT22;11671;49.990;8.028;2023-03-24T16:27:09;18.10;99.90
23010;DHT22;11671;49.990;8.028;2023-03-24T16:29:35;18.10;99.90
23010;DHT22;11671;49.990;8.028;2023-03-24T16:32:01;17.90;99.90
23010;DHT22;11671;49.990;8.028;2023-03-24T16:34:27;17.80;99.90
23010;DHT22;11671;49.990;8.028;2023-03-24T16:36:53;17.70;99.90
23010;DHT22;11671;49.990;8.028;2023-03-24T16:39:21;17.60;99.90
23010;DHT22;11671;49.990;8.028;2023-03-24T16:41:47;17.50;99.90
23010;DHT22;11671;49.990;8.028;2023-03-24T16:44:13;17.60;99.90
23010;DHT22;11671;49.990;8.028;2023-03-24T16:46:39;17.50;99.90
23010;DHT22;11671;49.990;8.028;2023-03-24T16:49:07;17.50;99.90
23010;DHT22;11671;49.990;8.028;2023-03-24T16:51:35;17.40;99.90
23010;DHT22;11671;49.990;8.028;2023-03-24T16:54:01;17.40;99.90
23010;DHT22;11671;49.990;8.028;2023-03-24T16:56:27;17.30;99.90
23010;DHT22;11671;49.990;8.028;2023-03-24T16:58:53;17.20;99.90
23010;DHT22;11671;49.990;8.028;2023-03-24T17:01:37;17.10;99.90
23010;DHT22;11671;49.990;8.028;2023-03-24T17:04:16;17.10;99.90
23010;DHT22;11671;49.990;8.028;2023-03-24T17:06:48;17.10;99.90
23010;DHT22;11671;49.990;8.028;2023-03-24T17:09:15;17.90;99.90
23010;DHT22;11671;49.990;8.028;2023-03-24T17:14:09;18.60;99.90
23010;DHT22;11671;49.990;8.028;2023-03-24T17:16:38;18.70;99.90
23010;DHT22;11671;49.990;8.028;2023-03-24T17:19:08;18.70;99.90
23010;DHT22;11671;49.990;8.028;2023-03-24T17:21:38;18.70;99.90
23010;DHT22;11671;49.990;8.028;2023-03-24T17:24:05;18.50;99.90
23010;DHT22;11671;49.990;8.028;2023-03-24T17:26:36;17.70;99.90
23010;DHT22;11671;49.990;8.028;2023-03-24T17:29:02;17.10;99.90
23010;DHT22;11671;49.990;8.028;2023-03-24T17:31:28;16.70;99.90
23010;DHT22;11671;49.990;8.028;2023-03-24T17:33:54;16.40;99.90
23010;DHT22;11671;49.990;8.028;2023-03-24T17:36:19;16.30;99.90
23010;DHT22;11671;49.990;8.028;2023-03-24T17:38:45;16.10;99.90
23010;DHT22;11671;49.990;8.028;2023-03-24T17:41:13;15.90;99.90
23010;DHT22;11671;49.990;8.028;2023-03-24T17:43:38;15.80;99.90
23010;DHT22;11671;49.990;8.028;2023-03-24T17:46:04;15.70;99.90
23010;DHT22;11671;49.990;8.028;2023-03-24T17:48:30;15.50;99.90
23010;DHT22;11671;49.990;8.028;2023-03-24T17:50:56;15.40;99.90
23010;DHT22;11671;49.990;8.028;2023-03-24T17:53:22;15.40;99.90
23010;DHT22;11671;49.990;8.028;2023-03-24T17:55:56;15.30;99.90
23010;DHT22;11671;49.990;8.028;2023-03-24T17:58:23;15.30;99.90
23010;DHT22;11671;49.990;8.028;2023-03-24T18:00:50;15.20;99.90
23010;DHT22;11671;49.990;8.028;2023-03-24T18:03:16;15.10;99.90
23010;DHT22;11671;49.990;8.028;2023-03-24T18:05:42;15.10;99.90
23010;DHT22;11671;49.990;8.028;2023-03-24T18:08:07;15.00;99.90
23010;DHT22;11671;49.990;8.028;2023-03-24T18:10:34;14.90;99.90
23010;DHT22;11671;49.990;8.028;2023-03-24T18:13:01;14.90;99.90
23010;DHT22;11671;49.990;8.028;2023-03-24T18:15:27;14.90;99.90
23010;DHT22;11671;49.990;8.028;2023-03-24T18:17:52;14.80;99.90
23010;DHT22;11671;49.990;8.028;2023-03-24T18:20:18;14.80;99.90
23010;DHT22;11671;49.990;8.028;2023-03-24T18:22:43;14.70;99.90